sensor_id;sensor_type;location;lat;lon;timestamp;P1;durP1;ratioP1;P2;durP2;ratioP2
70165;SDS011;57541;47.408;18.822;2022-12-29T00:00:24;27.48;;;13.93;;
70165;SDS011;57541;47.408;18.822;2022-12-29T00:00:59;26.15;;;12.88;;
70165;SDS011;57541;47.408;18.822;2022-12-29T00:01:31;24.30;;;12.57;;
70165;SDS011;57541;47.408;18.822;2022-12-29T00:02:03;24.88;;;14.02;;
70165;SDS011;57541;47.408;18.822;2022-12-29T00:02:34;25.63;;;13.75;;
70165;SDS011;57541;47.408;18.822;2022-12-29T00:03:06;24.85;;;13.00;;
70165;SDS011;57541;47.408;18.822;2022-12-29T00:03:38;22.98;;;12.82;;
70165;SDS011;57541;47.408;18.822;2022-12-29T00:04:11;23.00;;;12.43;;
70165;SDS011;57541;47.408;18.822;2022-12-29T00:04:45;26.85;;;13.18;;
70165;SDS011;57541;47.408;18.822;2022-12-29T00:05:17;22.15;;;12.60;;
70165;SDS011;57541;47.408;18.822;2022-12-29T00:05:53;25.92;;;13.85;;
70165;SDS011;57541;47.408;18.822;2022-12-29T00:06:26;27.35;;;13.63;;
70165;SDS011;57541;47.408;18.822;2022-12-29T00:06:58;25.35;;;12.25;;
70165;SDS011;57541;47.408;18.822;2022-12-29T00:07:30;27.80;;;13.18;;
70165;SDS011;57541;47.408;18.822;2022-12-29T00:08:01;23.73;;;12.52;;
70165;SDS011;57541;47.408;18.822;2022-12-29T00:08:33;25.05;;;13.63;;
70165;SDS011;57541;47.408;18.822;2022-12-29T00:09:12;23.17;;;12.63;;
70165;SDS011;57541;47.408;18.822;2022-12-29T00:09:44;26.27;;;13.32;;
70165;SDS011;57541;47.408;18.822;2022-12-29T00:10:16;26.40;;;13.55;;
70165;SDS011;57541;47.408;18.822;2022-12-29T00:10:47;25.50;;;13.82;;
70165;SDS011;57541;47.408;18.822;2022-12-29T00:11:23;23.17;;;12.85;;
70165;SDS011;57541;47.408;18.822;2022-12-29T00:11:56;23.38;;;12.32;;
70165;SDS011;57541;47.408;18.822;2022-12-29T00:12:28;28.52;;;12.48;;
70165;SDS011;57541;47.408;18.822;2022-12-29T00:13:20;24.65;;;12.30;;
70165;SDS011;57541;47.408;18.822;2022-12-29T00:14:10;25.17;;;12.38;;
70165;SDS011;57541;47.408;18.822;2022-12-29T00:15:01;25.15;;;12.18;;
70165;SDS011;57541;47.408;18.822;2022-12-29T00:15:52;20.40;;;11.93;;
70165;SDS011;57541;47.408;18.822;2022-12-29T00:16:23;24.25;;;12.98;;
70165;SDS011;57541;47.408;18.822;2022-12-29T00:16:56;25.70;;;12.98;;
70165;SDS011;57541;47.408;18.822;2022-12-29T00:17:28;23.58;;;12.75;;
70165;SDS011;57541;47.408;18.822;2022-12-29T00:17:59;25.77;;;13.55;;
70165;SDS011;57541;47.408;18.822;2022-12-29T00:18:31;29.75;;;13.05;;
70165;SDS011;57541;47.408;18.822;2022-12-29T00:19:04;24.58;;;12.32;;
70165;SDS011;57541;47.408;18.822;2022-12-29T00:19:37;25.33;;;12.80;;
70165;SDS011;57541;47.408;18.822;2022-12-29T00:20:27;24.83;;;13.35;;
70165;SDS011;57541;47.408;18.822;2022-12-29T00:21:18;26.25;;;13.02;;
70165;SDS011;57541;47.408;18.822;2022-12-29T00:22:10;27.05;;;12.73;;
70165;SDS011;57541;47.408;18.822;2022-12-29T00:23:01;26.40;;;12.32;;
70165;SDS011;57541;47.408;18.822;2022-12-29T00:23:51;24.90;;;12.32;;
70165;SDS011;57541;47.408;18.822;2022-12-29T00:24:58;23.42;;;11.73;;
70165;SDS011;57541;47.408;18.822;2022-12-29T00:25:33;24.98;;;12.70;;
70165;SDS011;57541;47.408;18.822;2022-12-29T00:26:25;27.40;;;13.38;;
70165;SDS011;57541;47.408;18.822;2022-12-29T00:27:16;23.70;;;12.00;;
70165;SDS011;57541;47.408;18.822;2022-12-29T00:28:07;22.98;;;11.43;;
70165;SDS011;57541;47.408;18.822;2022-12-29T00:28:59;24.00;;;12.57;;
70165;SDS011;57541;47.408;18.822;2022-12-29T00:29:49;24.48;;;12.18;;
70165;SDS011;57541;47.408;18.822;2022-12-29T00:30:39;22.05;;;12.20;;
70165;SDS011;57541;47.408;18.822;2022-12-29T00:31:30;27.13;;;12.20;;
70165;SDS011;57541;47.408;18.822;2022-12-29T00:32:20;23.75;;;12.68;;
70165;SDS011;57541;47.408;18.822;2022-12-29T00:34:10;22.90;;;12.48;;
70165;SDS011;57541;47.408;18.822;2022-12-29T00:35:00;22.20;;;11.52;;
70165;SDS011;57541;47.408;18.822;2022-12-29T00:35:45;24.42;;;12.18;;
70165;SDS011;57541;47.408;18.822;2022-12-29T00:36:25;23.48;;;11.98;;
70165;SDS011;57541;47.408;18.822;2022-12-29T00:37:03;26.05;;;13.15;;
70165;SDS011;57541;47.408;18.822;2022-12-29T00:37:38;27.10;;;13.00;;
70165;SDS011;57541;47.408;18.822;2022-12-29T00:38:32;23.40;;;12.00;;
70165;SDS011;57541;47.408;18.822;2022-12-29T00:39:26;21.92;;;11.15;;
70165;SDS011;57541;47.408;18.822;2022-12-29T00:40:17;25.55;;;11.68;;
70165;SDS011;57541;47.408;18.822;2022-12-29T00:41:06;23.58;;;11.73;;
70165;SDS011;57541;47.408;18.822;2022-12-29T00:42:02;24.20;;;11.85;;
70165;SDS011;57541;47.408;18.822;2022-12-29T00:42:51;23.50;;;12.02;;
70165;SDS011;57541;47.408;18.822;2022-12-29T00:43:41;24.65;;;12.43;;
70165;SDS011;57541;47.408;18.822;2022-12-29T00:44:31;23.83;;;12.38;;
70165;SDS011;57541;47.408;18.822;2022-12-29T00:45:04;25.13;;;13.05;;
70165;SDS011;57541;47.408;18.822;2022-12-29T00:45:36;24.05;;;12.88;;
70165;SDS011;57541;47.408;18.822;2022-12-29T00:46:07;24.02;;;13.13;;
70165;SDS011;57541;47.408;18.822;2022-12-29T00:46:46;23.77;;;13.10;;
70165;SDS011;57541;47.408;18.822;2022-12-29T00:47:17;22.50;;;12.13;;
70165;SDS011;57541;47.408;18.822;2022-12-29T00:47:49;25.10;;;13.57;;
70165;SDS011;57541;47.408;18.822;2022-12-29T00:48:21;25.63;;;12.82;;
70165;SDS011;57541;47.408;18.822;2022-12-29T00:49:12;26.17;;;12.38;;
70165;SDS011;57541;47.408;18.822;2022-12-29T00:50:04;23.30;;;12.18;;
70165;SDS011;57541;47.408;18.822;2022-12-29T00:50:35;23.02;;;12.20;;
70165;SDS011;57541;47.408;18.822;2022-12-29T00:51:07;24.30;;;12.75;;
70165;SDS011;57541;47.408;18.822;2022-12-29T00:51:39;25.40;;;12.77;;
70165;SDS011;57541;47.408;18.822;2022-12-29T00:52:11;26.30;;;13.18;;
70165;SDS011;57541;47.408;18.822;2022-12-29T00:52:44;25.90;;;12.85;;
70165;SDS011;57541;47.408;18.822;2022-12-29T00:53:15;26.63;;;12.85;;
70165;SDS011;57541;47.408;18.822;2022-12-29T00:53:47;23.83;;;13.05;;
70165;SDS011;57541;47.408;18.822;2022-12-29T00:54:19;24.55;;;12.63;;
70165;SDS011;57541;47.408;18.822;2022-12-29T00:54:51;23.80;;;12.50;;
70165;SDS011;57541;47.408;18.822;2022-12-29T00:55:22;24.73;;;13.00;;
70165;SDS011;57541;47.408;18.822;2022-12-29T00:55:54;25.73;;;13.35;;
70165;SDS011;57541;47.408;18.822;2022-12-29T00:56:25;23.98;;;12.88;;
70165;SDS011;57541;47.408;18.822;2022-12-29T00:56:57;25.00;;;13.55;;
70165;SDS011;57541;47.408;18.822;2022-12-29T00:57:29;26.23;;;12.93;;
70165;SDS011;57541;47.408;18.822;2022-12-29T00:58:00;26.10;;;13.30;;
70165;SDS011;57541;47.408;18.822;2022-12-29T00:58:32;23.30;;;12.27;;
70165;SDS011;57541;47.408;18.822;2022-12-29T00:59:05;22.50;;;12.20;;
70165;SDS011;57541;47.408;18.822;2022-12-29T00:59:39;24.88;;;11.88;;
70165;SDS011;57541;47.408;18.822;2022-12-29T01:00:11;22.88;;;12.20;;
70165;SDS011;57541;47.408;18.822;2022-12-29T01:00:44;23.40;;;12.63;;
70165;SDS011;57541;47.408;18.822;2022-12-29T01:01:15;22.95;;;12.52;;
70165;SDS011;57541;47.408;18.822;2022-12-29T01:01:48;24.98;;;12.10;;
70165;SDS011;57541;47.408;18.822;2022-12-29T01:02:20;29.73;;;13.32;;
70165;SDS011;57541;47.408;18.822;2022-12-29T01:02:51;25.65;;;13.40;;
70165;SDS011;57541;47.408;18.822;2022-12-29T01:03:23;23.65;;;12.77;;
70165;SDS011;57541;47.408;18.822;2022-12-29T01:03:55;23.83;;;12.18;;
70165;SDS011;57541;47.408;18.822;2022-12-29T01:04:34;24.08;;;12.40;;
70165;SDS011;57541;47.408;18.822;2022-12-29T01:05:06;25.08;;;12.85;;
70165;SDS011;57541;47.408;18.822;2022-12-29T01:05:37;23.90;;;13.00;;
70165;SDS011;57541;47.408;18.822;2022-12-29T01:06:09;23.05;;;12.10;;
70165;SDS011;57541;47.408;18.822;2022-12-29T01:06:42;21.80;;;12.02;;
70165;SDS011;57541;47.408;18.822;2022-12-29T01:07:13;23.90;;;12.73;;
70165;SDS011;57541;47.408;18.822;2022-12-29T01:07:45;23.88;;;12.30;;
70165;SDS011;57541;47.408;18.822;2022-12-29T01:08:16;25.45;;;12.85;;
70165;SDS011;57541;47.408;18.822;2022-12-29T01:08:48;24.60;;;12.48;;
70165;SDS011;57541;47.408;18.822;2022-12-29T01:09:43;25.08;;;12.63;;
70165;SDS011;57541;47.408;18.822;2022-12-29T01:10:33;23.77;;;12.38;;
70165;SDS011;57541;47.408;18.822;2022-12-29T01:11:05;22.15;;;12.23;;
70165;SDS011;57541;47.408;18.822;2022-12-29T01:11:38;25.52;;;12.25;;
70165;SDS011;57541;47.408;18.822;2022-12-29T01:12:11;24.75;;;12.50;;
70165;SDS011;57541;47.408;18.822;2022-12-29T01:12:43;24.95;;;13.10;;
70165;SDS011;57541;47.408;18.822;2022-12-29T01:13:16;25.85;;;12.77;;
70165;SDS011;57541;47.408;18.822;2022-12-29T01:13:48;26.42;;;13.35;;
70165;SDS011;57541;47.408;18.822;2022-12-29T01:14:20;24.40;;;13.13;;
70165;SDS011;57541;47.408;18.822;2022-12-29T01:14:52;24.60;;;12.73;;
70165;SDS011;57541;47.408;18.822;2022-12-29T01:15:23;24.67;;;13.45;;
70165;SDS011;57541;47.408;18.822;2022-12-29T01:15:55;24.55;;;12.77;;
70165;SDS011;57541;47.408;18.822;2022-12-29T01:16:27;22.23;;;12.60;;
70165;SDS011;57541;47.408;18.822;2022-12-29T01:17:00;24.63;;;13.43;;
70165;SDS011;57541;47.408;18.822;2022-12-29T01:17:32;27.52;;;12.82;;
70165;SDS011;57541;47.408;18.822;2022-12-29T01:18:04;24.42;;;12.98;;
70165;SDS011;57541;47.408;18.822;2022-12-29T01:18:36;25.85;;;13.38;;
70165;SDS011;57541;47.408;18.822;2022-12-29T01:19:07;23.30;;;12.38;;
70165;SDS011;57541;47.408;18.822;2022-12-29T01:19:39;26.08;;;13.52;;
70165;SDS011;57541;47.408;18.822;2022-12-29T01:20:11;27.30;;;13.73;;
70165;SDS011;57541;47.408;18.822;2022-12-29T01:20:44;23.80;;;12.70;;
70165;SDS011;57541;47.408;18.822;2022-12-29T01:21:15;26.40;;;13.70;;
70165;SDS011;57541;47.408;18.822;2022-12-29T01:21:48;23.00;;;12.90;;
70165;SDS011;57541;47.408;18.822;2022-12-29T01:22:20;26.25;;;13.70;;
70165;SDS011;57541;47.408;18.822;2022-12-29T01:22:51;25.48;;;13.80;;
70165;SDS011;57541;47.408;18.822;2022-12-29T01:23:23;25.08;;;13.07;;
70165;SDS011;57541;47.408;18.822;2022-12-29T01:23:55;24.80;;;12.60;;
70165;SDS011;57541;47.408;18.822;2022-12-29T01:24:26;25.98;;;13.93;;
70165;SDS011;57541;47.408;18.822;2022-12-29T01:24:58;26.42;;;13.55;;
70165;SDS011;57541;47.408;18.822;2022-12-29T01:25:30;25.13;;;13.57;;
70165;SDS011;57541;47.408;18.822;2022-12-29T01:26:10;25.15;;;13.00;;
70165;SDS011;57541;47.408;18.822;2022-12-29T01:26:44;25.73;;;12.30;;
70165;SDS011;57541;47.408;18.822;2022-12-29T01:27:16;22.42;;;12.25;;
70165;SDS011;57541;47.408;18.822;2022-12-29T01:27:48;21.55;;;12.75;;
70165;SDS011;57541;47.408;18.822;2022-12-29T01:28:20;23.38;;;12.23;;
70165;SDS011;57541;47.408;18.822;2022-12-29T01:28:56;24.38;;;12.60;;
70165;SDS011;57541;47.408;18.822;2022-12-29T01:29:27;26.42;;;12.82;;
70165;SDS011;57541;47.408;18.822;2022-12-29T01:29:59;24.70;;;12.73;;
70165;SDS011;57541;47.408;18.822;2022-12-29T01:30:31;24.45;;;12.70;;
70165;SDS011;57541;47.408;18.822;2022-12-29T01:31:03;24.52;;;13.18;;
70165;SDS011;57541;47.408;18.822;2022-12-29T01:31:35;23.27;;;12.55;;
70165;SDS011;57541;47.408;18.822;2022-12-29T01:32:07;23.85;;;13.20;;
70165;SDS011;57541;47.408;18.822;2022-12-29T01:32:39;22.77;;;12.98;;
70165;SDS011;57541;47.408;18.822;2022-12-29T01:33:10;23.58;;;12.40;;
70165;SDS011;57541;47.408;18.822;2022-12-29T01:33:42;24.90;;;12.85;;
70165;SDS011;57541;47.408;18.822;2022-12-29T01:34:14;23.20;;;12.52;;
70165;SDS011;57541;47.408;18.822;2022-12-29T01:34:46;26.15;;;13.07;;
70165;SDS011;57541;47.408;18.822;2022-12-29T01:35:18;25.05;;;12.65;;
70165;SDS011;57541;47.408;18.822;2022-12-29T01:35:49;23.70;;;12.50;;
70165;SDS011;57541;47.408;18.822;2022-12-29T01:36:21;24.25;;;13.15;;
70165;SDS011;57541;47.408;18.822;2022-12-29T01:36:52;24.30;;;12.80;;
70165;SDS011;57541;47.408;18.822;2022-12-29T01:37:24;26.30;;;13.27;;
70165;SDS011;57541;47.408;18.822;2022-12-29T01:37:56;22.85;;;11.93;;
70165;SDS011;57541;47.408;18.822;2022-12-29T01:38:27;24.83;;;12.38;;
70165;SDS011;57541;47.408;18.822;2022-12-29T01:38:59;28.27;;;12.98;;
70165;SDS011;57541;47.408;18.822;2022-12-29T01:39:31;23.13;;;12.57;;
70165;SDS011;57541;47.408;18.822;2022-12-29T01:40:02;24.88;;;12.55;;
70165;SDS011;57541;47.408;18.822;2022-12-29T01:40:42;23.75;;;13.15;;
70165;SDS011;57541;47.408;18.822;2022-12-29T01:41:14;23.55;;;12.35;;
70165;SDS011;57541;47.408;18.822;2022-12-29T01:41:48;24.42;;;12.57;;
70165;SDS011;57541;47.408;18.822;2022-12-29T01:42:22;23.73;;;12.45;;
70165;SDS011;57541;47.408;18.822;2022-12-29T01:42:56;26.17;;;12.93;;
70165;SDS011;57541;47.408;18.822;2022-12-29T01:43:41;23.95;;;13.07;;
70165;SDS011;57541;47.408;18.822;2022-12-29T01:45:26;22.60;;;12.13;;
70165;SDS011;57541;47.408;18.822;2022-12-29T01:45:58;23.65;;;12.25;;
70165;SDS011;57541;47.408;18.822;2022-12-29T01:46:31;22.77;;;12.00;;
70165;SDS011;57541;47.408;18.822;2022-12-29T01:47:07;22.30;;;11.95;;
70165;SDS011;57541;47.408;18.822;2022-12-29T01:47:41;23.02;;;12.43;;
70165;SDS011;57541;47.408;18.822;2022-12-29T01:48:16;21.95;;;12.88;;
70165;SDS011;57541;47.408;18.822;2022-12-29T01:48:48;23.80;;;12.07;;
70165;SDS011;57541;47.408;18.822;2022-12-29T01:49:23;22.20;;;12.75;;
70165;SDS011;57541;47.408;18.822;2022-12-29T01:49:59;22.05;;;12.13;;
70165;SDS011;57541;47.408;18.822;2022-12-29T01:50:36;21.80;;;11.77;;
70165;SDS011;57541;47.408;18.822;2022-12-29T01:51:11;23.33;;;11.68;;
70165;SDS011;57541;47.408;18.822;2022-12-29T01:51:43;25.08;;;12.27;;
70165;SDS011;57541;47.408;18.822;2022-12-29T01:52:16;23.08;;;12.50;;
70165;SDS011;57541;47.408;18.822;2022-12-29T01:52:54;25.77;;;12.27;;
70165;SDS011;57541;47.408;18.822;2022-12-29T01:53:32;25.73;;;12.20;;
70165;SDS011;57541;47.408;18.822;2022-12-29T01:54:08;24.25;;;12.57;;
70165;SDS011;57541;47.408;18.822;2022-12-29T01:54:47;23.35;;;11.63;;
70165;SDS011;57541;47.408;18.822;2022-12-29T01:55:23;21.02;;;11.77;;
70165;SDS011;57541;47.408;18.822;2022-12-29T01:55:58;22.75;;;12.40;;
70165;SDS011;57541;47.408;18.822;2022-12-29T01:56:33;24.77;;;13.00;;
70165;SDS011;57541;47.408;18.822;2022-12-29T01:57:06;22.92;;;12.07;;
70165;SDS011;57541;47.408;18.822;2022-12-29T01:57:41;23.92;;;12.73;;
70165;SDS011;57541;47.408;18.822;2022-12-29T01:58:18;23.58;;;12.20;;
70165;SDS011;57541;47.408;18.822;2022-12-29T01:58:57;22.30;;;11.98;;
70165;SDS011;57541;47.408;18.822;2022-12-29T01:59:39;22.33;;;12.73;;
70165;SDS011;57541;47.408;18.822;2022-12-29T02:00:14;21.85;;;11.35;;
70165;SDS011;57541;47.408;18.822;2022-12-29T02:01:10;21.52;;;11.75;;
70165;SDS011;57541;47.408;18.822;2022-12-29T02:01:41;23.42;;;11.55;;
70165;SDS011;57541;47.408;18.822;2022-12-29T02:02:13;22.77;;;11.90;;
70165;SDS011;57541;47.408;18.822;2022-12-29T02:02:46;25.05;;;12.00;;
70165;SDS011;57541;47.408;18.822;2022-12-29T02:03:22;23.42;;;12.00;;
70165;SDS011;57541;47.408;18.822;2022-12-29T02:03:57;22.08;;;11.77;;
70165;SDS011;57541;47.408;18.822;2022-12-29T02:04:30;25.52;;;12.65;;
70165;SDS011;57541;47.408;18.822;2022-12-29T02:05:09;24.15;;;12.45;;
70165;SDS011;57541;47.408;18.822;2022-12-29T02:06:28;23.00;;;12.43;;
70165;SDS011;57541;47.408;18.822;2022-12-29T02:07:04;22.20;;;11.35;;
70165;SDS011;57541;47.408;18.822;2022-12-29T02:07:41;20.20;;;11.65;;
70165;SDS011;57541;47.408;18.822;2022-12-29T02:08:13;25.52;;;12.35;;
70165;SDS011;57541;47.408;18.822;2022-12-29T02:08:46;23.42;;;12.05;;
70165;SDS011;57541;47.408;18.822;2022-12-29T02:09:18;25.83;;;12.85;;
70165;SDS011;57541;47.408;18.822;2022-12-29T02:09:50;20.10;;;11.63;;
70165;SDS011;57541;47.408;18.822;2022-12-29T02:10:24;21.40;;;12.05;;
70165;SDS011;57541;47.408;18.822;2022-12-29T02:10:59;22.17;;;12.45;;
70165;SDS011;57541;47.408;18.822;2022-12-29T02:11:32;21.90;;;12.20;;
70165;SDS011;57541;47.408;18.822;2022-12-29T02:12:04;23.77;;;12.02;;
70165;SDS011;57541;47.408;18.822;2022-12-29T02:12:35;24.27;;;13.30;;
70165;SDS011;57541;47.408;18.822;2022-12-29T02:13:07;23.83;;;13.45;;
70165;SDS011;57541;47.408;18.822;2022-12-29T02:13:39;23.85;;;12.68;;
70165;SDS011;57541;47.408;18.822;2022-12-29T02:14:11;25.38;;;13.60;;
70165;SDS011;57541;47.408;18.822;2022-12-29T02:14:44;23.80;;;12.57;;
70165;SDS011;57541;47.408;18.822;2022-12-29T02:15:17;21.90;;;11.77;;
70165;SDS011;57541;47.408;18.822;2022-12-29T02:22:38;29.75;;;14.98;;
70165;SDS011;57541;47.408;18.822;2022-12-29T02:31:55;21.42;;;11.25;;
70165;SDS011;57541;47.408;18.822;2022-12-29T02:37:02;23.67;;;12.85;;
70165;SDS011;57541;47.408;18.822;2022-12-29T02:37:51;22.05;;;11.88;;
70165;SDS011;57541;47.408;18.822;2022-12-29T02:41:25;25.73;;;13.38;;
70165;SDS011;57541;47.408;18.822;2022-12-29T02:42:52;24.85;;;12.25;;
70165;SDS011;57541;47.408;18.822;2022-12-29T02:43:44;24.15;;;13.18;;
70165;SDS011;57541;47.408;18.822;2022-12-29T02:45:11;25.13;;;13.23;;
70165;SDS011;57541;47.408;18.822;2022-12-29T02:45:58;25.70;;;13.45;;
70165;SDS011;57541;47.408;18.822;2022-12-29T02:46:36;27.27;;;13.20;;
70165;SDS011;57541;47.408;18.822;2022-12-29T02:47:16;25.10;;;13.38;;
70165;SDS011;57541;47.408;18.822;2022-12-29T02:48:38;26.58;;;13.05;;
70165;SDS011;57541;47.408;18.822;2022-12-29T02:49:22;26.88;;;13.23;;
70165;SDS011;57541;47.408;18.822;2022-12-29T02:50:51;26.20;;;13.23;;
70165;SDS011;57541;47.408;18.822;2022-12-29T02:52:34;25.00;;;12.20;;
70165;SDS011;57541;47.408;18.822;2022-12-29T02:53:13;24.70;;;13.32;;
70165;SDS011;57541;47.408;18.822;2022-12-29T02:53:47;24.38;;;13.18;;
70165;SDS011;57541;47.408;18.822;2022-12-29T02:54:38;25.38;;;12.82;;
70165;SDS011;57541;47.408;18.822;2022-12-29T02:55:14;26.30;;;13.57;;
70165;SDS011;57541;47.408;18.822;2022-12-29T02:55:49;23.23;;;12.93;;
70165;SDS011;57541;47.408;18.822;2022-12-29T02:56:21;25.30;;;14.00;;
70165;SDS011;57541;47.408;18.822;2022-12-29T02:56:53;27.27;;;14.32;;
70165;SDS011;57541;47.408;18.822;2022-12-29T02:58:17;24.98;;;13.93;;
70165;SDS011;57541;47.408;18.822;2022-12-29T02:58:50;27.08;;;13.25;;
70165;SDS011;57541;47.408;18.822;2022-12-29T02:59:22;27.67;;;13.90;;
70165;SDS011;57541;47.408;18.822;2022-12-29T02:59:58;25.65;;;12.55;;
70165;SDS011;57541;47.408;18.822;2022-12-29T03:00:36;25.27;;;14.23;;
70165;SDS011;57541;47.408;18.822;2022-12-29T03:04:50;28.73;;;14.35;;
70165;SDS011;57541;47.408;18.822;2022-12-29T03:07:12;27.10;;;13.68;;
70165;SDS011;57541;47.408;18.822;2022-12-29T03:08:09;32.90;;;15.07;;
70165;SDS011;57541;47.408;18.822;2022-12-29T03:12:18;28.65;;;13.10;;
70165;SDS011;57541;47.408;18.822;2022-12-29T03:13:25;25.92;;;12.30;;
70165;SDS011;57541;47.408;18.822;2022-12-29T03:16:29;26.00;;;11.88;;
70165;SDS011;57541;47.408;18.822;2022-12-29T03:16:58;28.00;;;12.40;;
70165;SDS011;57541;47.408;18.822;2022-12-29T03:18:30;25.30;;;13.10;;
70165;SDS011;57541;47.408;18.822;2022-12-29T03:19:10;27.05;;;12.82;;
70165;SDS011;57541;47.408;18.822;2022-12-29T03:19:46;27.70;;;13.63;;
70165;SDS011;57541;47.408;18.822;2022-12-29T03:20:24;25.58;;;13.60;;
70165;SDS011;57541;47.408;18.822;2022-12-29T03:21:06;29.73;;;14.60;;
70165;SDS011;57541;47.408;18.822;2022-12-29T03:21:46;26.70;;;14.10;;
70165;SDS011;57541;47.408;18.822;2022-12-29T03:22:42;26.38;;;13.57;;
70165;SDS011;57541;47.408;18.822;2022-12-29T03:23:18;25.42;;;12.90;;
70165;SDS011;57541;47.408;18.822;2022-12-29T03:23:52;26.23;;;13.07;;
70165;SDS011;57541;47.408;18.822;2022-12-29T03:24:25;26.35;;;13.07;;
70165;SDS011;57541;47.408;18.822;2022-12-29T03:25:03;27.13;;;13.85;;
70165;SDS011;57541;47.408;18.822;2022-12-29T03:25:40;27.23;;;13.50;;
70165;SDS011;57541;47.408;18.822;2022-12-29T03:26:17;30.17;;;13.52;;
70165;SDS011;57541;47.408;18.822;2022-12-29T03:26:51;25.33;;;13.80;;
70165;SDS011;57541;47.408;18.822;2022-12-29T03:27:30;28.25;;;14.13;;
70165;SDS011;57541;47.408;18.822;2022-12-29T03:28:06;27.08;;;13.82;;
70165;SDS011;57541;47.408;18.822;2022-12-29T03:28:44;28.17;;;14.05;;
70165;SDS011;57541;47.408;18.822;2022-12-29T03:29:20;27.17;;;14.45;;
70165;SDS011;57541;47.408;18.822;2022-12-29T03:29:53;27.70;;;14.10;;
70165;SDS011;57541;47.408;18.822;2022-12-29T03:30:28;26.50;;;14.20;;
70165;SDS011;57541;47.408;18.822;2022-12-29T03:31:03;24.92;;;13.10;;
70165;SDS011;57541;47.408;18.822;2022-12-29T03:31:38;27.35;;;14.00;;
70165;SDS011;57541;47.408;18.822;2022-12-29T03:32:10;26.92;;;14.05;;
70165;SDS011;57541;47.408;18.822;2022-12-29T03:32:52;29.48;;;14.27;;
70165;SDS011;57541;47.408;18.822;2022-12-29T03:33:27;26.80;;;13.65;;
70165;SDS011;57541;47.408;18.822;2022-12-29T03:34:00;29.73;;;14.20;;
70165;SDS011;57541;47.408;18.822;2022-12-29T03:34:32;25.63;;;13.95;;
70165;SDS011;57541;47.408;18.822;2022-12-29T03:35:05;28.85;;;13.68;;
70165;SDS011;57541;47.408;18.822;2022-12-29T03:35:40;27.92;;;14.55;;
70165;SDS011;57541;47.408;18.822;2022-12-29T03:36:16;27.05;;;13.80;;
70165;SDS011;57541;47.408;18.822;2022-12-29T03:36:59;28.05;;;14.05;;
70165;SDS011;57541;47.408;18.822;2022-12-29T03:37:35;26.23;;;13.60;;
70165;SDS011;57541;47.408;18.822;2022-12-29T03:38:14;23.95;;;13.55;;
70165;SDS011;57541;47.408;18.822;2022-12-29T03:38:53;28.00;;;14.45;;
70165;SDS011;57541;47.408;18.822;2022-12-29T03:39:31;29.05;;;14.50;;
70165;SDS011;57541;47.408;18.822;2022-12-29T03:40:04;27.02;;;14.35;;
70165;SDS011;57541;47.408;18.822;2022-12-29T03:40:37;27.52;;;14.82;;
70165;SDS011;57541;47.408;18.822;2022-12-29T03:41:14;31.55;;;14.70;;
70165;SDS011;57541;47.408;18.822;2022-12-29T03:41:50;25.67;;;14.07;;
70165;SDS011;57541;47.408;18.822;2022-12-29T03:42:27;29.55;;;14.63;;
70165;SDS011;57541;47.408;18.822;2022-12-29T03:43:02;27.33;;;14.15;;
70165;SDS011;57541;47.408;18.822;2022-12-29T03:43:35;26.10;;;14.05;;
70165;SDS011;57541;47.408;18.822;2022-12-29T03:44:07;28.67;;;14.07;;
70165;SDS011;57541;47.408;18.822;2022-12-29T03:44:39;30.55;;;14.85;;
70165;SDS011;57541;47.408;18.822;2022-12-29T03:45:13;27.98;;;15.02;;
70165;SDS011;57541;47.408;18.822;2022-12-29T03:45:44;27.70;;;15.02;;
70165;SDS011;57541;47.408;18.822;2022-12-29T03:46:16;27.95;;;13.70;;
70165;SDS011;57541;47.408;18.822;2022-12-29T03:46:48;27.27;;;14.32;;
70165;SDS011;57541;47.408;18.822;2022-12-29T03:47:21;27.48;;;14.18;;
70165;SDS011;57541;47.408;18.822;2022-12-29T03:47:54;25.40;;;14.30;;
70165;SDS011;57541;47.408;18.822;2022-12-29T03:48:25;26.92;;;14.20;;
70165;SDS011;57541;47.408;18.822;2022-12-29T03:48:57;25.70;;;13.18;;
70165;SDS011;57541;47.408;18.822;2022-12-29T03:49:29;26.35;;;13.93;;
70165;SDS011;57541;47.408;18.822;2022-12-29T03:50:00;29.95;;;14.55;;
70165;SDS011;57541;47.408;18.822;2022-12-29T03:50:32;27.20;;;13.68;;
70165;SDS011;57541;47.408;18.822;2022-12-29T03:51:04;27.90;;;14.32;;
70165;SDS011;57541;47.408;18.822;2022-12-29T03:51:36;28.67;;;15.23;;
70165;SDS011;57541;47.408;18.822;2022-12-29T03:52:07;24.65;;;13.85;;
70165;SDS011;57541;47.408;18.822;2022-12-29T03:52:39;27.50;;;14.77;;
70165;SDS011;57541;47.408;18.822;2022-12-29T03:53:11;28.88;;;15.50;;
70165;SDS011;57541;47.408;18.822;2022-12-29T03:53:43;26.65;;;15.13;;
70165;SDS011;57541;47.408;18.822;2022-12-29T03:54:14;26.08;;;14.75;;
70165;SDS011;57541;47.408;18.822;2022-12-29T03:54:46;25.80;;;13.63;;
70165;SDS011;57541;47.408;18.822;2022-12-29T03:55:18;24.25;;;13.90;;
70165;SDS011;57541;47.408;18.822;2022-12-29T03:55:50;29.70;;;14.20;;
70165;SDS011;57541;47.408;18.822;2022-12-29T03:56:22;26.65;;;14.27;;
70165;SDS011;57541;47.408;18.822;2022-12-29T03:56:53;27.52;;;14.55;;
70165;SDS011;57541;47.408;18.822;2022-12-29T03:57:25;28.38;;;15.23;;
70165;SDS011;57541;47.408;18.822;2022-12-29T03:57:56;24.67;;;14.00;;
70165;SDS011;57541;47.408;18.822;2022-12-29T03:58:28;26.48;;;14.05;;
70165;SDS011;57541;47.408;18.822;2022-12-29T03:58:59;25.67;;;14.82;;
70165;SDS011;57541;47.408;18.822;2022-12-29T03:59:31;28.50;;;15.00;;
70165;SDS011;57541;47.408;18.822;2022-12-29T04:00:03;25.38;;;13.60;;
70165;SDS011;57541;47.408;18.822;2022-12-29T04:00:37;26.73;;;14.63;;
70165;SDS011;57541;47.408;18.822;2022-12-29T04:01:09;26.23;;;14.43;;
70165;SDS011;57541;47.408;18.822;2022-12-29T04:01:40;26.80;;;14.85;;
70165;SDS011;57541;47.408;18.822;2022-12-29T04:02:12;28.98;;;14.25;;
70165;SDS011;57541;47.408;18.822;2022-12-29T04:02:44;26.40;;;14.32;;
70165;SDS011;57541;47.408;18.822;2022-12-29T04:03:17;28.38;;;14.52;;
70165;SDS011;57541;47.408;18.822;2022-12-29T04:03:49;22.75;;;13.27;;
70165;SDS011;57541;47.408;18.822;2022-12-29T04:04:21;25.23;;;13.98;;
70165;SDS011;57541;47.408;18.822;2022-12-29T04:04:52;25.52;;;14.30;;
70165;SDS011;57541;47.408;18.822;2022-12-29T04:05:24;25.52;;;13.10;;
70165;SDS011;57541;47.408;18.822;2022-12-29T04:05:56;24.25;;;13.65;;
70165;SDS011;57541;47.408;18.822;2022-12-29T04:06:27;27.88;;;14.43;;
70165;SDS011;57541;47.408;18.822;2022-12-29T04:06:59;27.25;;;13.98;;
70165;SDS011;57541;47.408;18.822;2022-12-29T04:07:30;29.02;;;14.65;;
70165;SDS011;57541;47.408;18.822;2022-12-29T04:08:02;25.95;;;14.38;;
70165;SDS011;57541;47.408;18.822;2022-12-29T04:08:34;27.30;;;14.57;;
70165;SDS011;57541;47.408;18.822;2022-12-29T04:09:06;27.98;;;14.10;;
70165;SDS011;57541;47.408;18.822;2022-12-29T04:09:37;30.70;;;15.05;;